Farndon, United Kingdom
Current Conditions -  °F | °C
As of 3:50 AM on Thursday 29 Jan 2015 (Local Time) from EGYD Reporting Station
Clear Clear  
Wind Chill: 22°   Ceiling: Unl
Heat Index: 34°   Visibility: 6mi
Dew Point: 30°   Wind: 23mph
Humidity: 87%   Direction: 240°WSW
Pressure: 29.18"   Gusts: NA
Location:  53.05°N, 0.85°W
Report Text: EGYD 290350Z AUTO 24020KT 9999 // NCD 01/M01 Q0988
Loading
Personal Weather Stations






























Interactive Weather Map New forecast layout! Learn more

10-Day Weather Forecast

Advertisements
Track Severe Weather on mobile